Fish House, New York
Current Conditions -  °F | °C
As of 8:15 PM on Tuesday 27 Jan 2015 (Local Time) from KNY0 Reporting Station
Broken Clouds Broken Clouds  
Wind Chill: 10°   Ceiling: 3700
Heat Index: 10°   Visibility: 10mi
Dew Point:   Wind: 3mph
Humidity: 85%   Direction: 120°ESE
Pressure: 29.83"   Gusts: NA
Location:  43.0744°N, 74.1473°W
Report Text: KNY0 280115Z AUTO 12003KT 10SM BKN037 M12/M14 A2983 RMK AO2 T11231143
Loading
Personal Weather Stations






























Interactive Weather Map New forecast layout! Learn more

10-Day Weather Forecast

Advertisements
Track Severe Weather on mobile